sensor_id;sensor_type;location;lat;lon;timestamp;P1;durP1;ratioP1;P2;durP2;ratioP2
69246;SDS011;56358;56.328;43.992;2023-09-18T00:00:21;8.10;;;2.53;;
69246;SDS011;56358;56.328;43.992;2023-09-18T00:02:22;5.70;;;2.30;;
69246;SDS011;56358;56.328;43.992;2023-09-18T00:04:23;4.65;;;2.50;;
69246;SDS011;56358;56.328;43.992;2023-09-18T00:06:24;5.03;;;2.28;;
69246;SDS011;56358;56.328;43.992;2023-09-18T00:08:25;4.13;;;2.05;;
69246;SDS011;56358;56.328;43.992;2023-09-18T00:10:26;4.88;;;2.33;;
69246;SDS011;56358;56.328;43.992;2023-09-18T00:12:27;3.60;;;2.15;;
69246;SDS011;56358;56.328;43.992;2023-09-18T00:14:27;4.40;;;2.17;;
69246;SDS011;56358;56.328;43.992;2023-09-18T00:16:28;4.28;;;2.33;;
69246;SDS011;56358;56.328;43.992;2023-09-18T00:18:29;4.13;;;2.13;;
69246;SDS011;56358;56.328;43.992;2023-09-18T00:20:29;4.50;;;2.35;;
69246;SDS011;56358;56.328;43.992;2023-09-18T00:22:30;4.90;;;2.13;;
69246;SDS011;56358;56.328;43.992;2023-09-18T00:24:31;4.43;;;2.10;;
69246;SDS011;56358;56.328;43.992;2023-09-18T00:26:32;4.30;;;2.33;;
69246;SDS011;56358;56.328;43.992;2023-09-18T00:28:32;4.28;;;2.38;;
69246;SDS011;56358;56.328;43.992;2023-09-18T00:30:33;4.15;;;1.90;;
69246;SDS011;56358;56.328;43.992;2023-09-18T00:32:35;4.82;;;2.13;;
69246;SDS011;56358;56.328;43.992;2023-09-18T00:34:35;6.35;;;2.22;;
69246;SDS011;56358;56.328;43.992;2023-09-18T00:36:36;6.30;;;2.30;;
69246;SDS011;56358;56.328;43.992;2023-09-18T00:38:36;4.55;;;1.88;;
69246;SDS011;56358;56.328;43.992;2023-09-18T00:40:37;4.53;;;2.08;;
69246;SDS011;56358;56.328;43.992;2023-09-18T00:42:38;4.55;;;2.28;;
69246;SDS011;56358;56.328;43.992;2023-09-18T00:44:39;3.67;;;2.10;;
69246;SDS011;56358;56.328;43.992;2023-09-18T00:46:41;3.58;;;2.03;;
69246;SDS011;56358;56.328;43.992;2023-09-18T00:48:41;3.17;;;2.03;;
69246;SDS011;56358;56.328;43.992;2023-09-18T00:50:45;4.03;;;2.10;;
69246;SDS011;56358;56.328;43.992;2023-09-18T00:52:47;4.75;;;2.30;;
69246;SDS011;56358;56.328;43.992;2023-09-18T00:54:49;4.35;;;1.92;;
69246;SDS011;56358;56.328;43.992;2023-09-18T00:56:50;3.75;;;1.80;;
69246;SDS011;56358;56.328;43.992;2023-09-18T00:58:54;4.63;;;1.95;;
69246;SDS011;56358;56.328;43.992;2023-09-18T01:00:55;3.05;;;1.60;;
69246;SDS011;56358;56.328;43.992;2023-09-18T01:02:55;3.90;;;1.92;;
69246;SDS011;56358;56.328;43.992;2023-09-18T01:04:56;4.53;;;2.15;;
69246;SDS011;56358;56.328;43.992;2023-09-18T01:06:58;4.13;;;1.95;;
69246;SDS011;56358;56.328;43.992;2023-09-18T01:09:02;5.30;;;2.28;;
69246;SDS011;56358;56.328;43.992;2023-09-18T01:11:32;5.97;;;2.30;;
69246;SDS011;56358;56.328;43.992;2023-09-18T01:16:53;4.65;;;2.15;;
69246;SDS011;56358;56.328;43.992;2023-09-18T01:18:56;3.50;;;2.05;;
69246;SDS011;56358;56.328;43.992;2023-09-18T01:20:57;4.03;;;1.85;;
69246;SDS011;56358;56.328;43.992;2023-09-18T01:22:57;4.20;;;2.28;;
69246;SDS011;56358;56.328;43.992;2023-09-18T01:24:58;5.07;;;2.10;;
69246;SDS011;56358;56.328;43.992;2023-09-18T01:26:59;5.25;;;2.35;;
69246;SDS011;56358;56.328;43.992;2023-09-18T01:28:59;3.22;;;2.15;;
69246;SDS011;56358;56.328;43.992;2023-09-18T01:31:00;3.80;;;2.15;;
69246;SDS011;56358;56.328;43.992;2023-09-18T01:33:01;4.82;;;2.55;;
69246;SDS011;56358;56.328;43.992;2023-09-18T01:35:04;6.03;;;2.53;;
69246;SDS011;56358;56.328;43.992;2023-09-18T01:37:09;5.18;;;2.50;;
69246;SDS011;56358;56.328;43.992;2023-09-18T01:39:11;5.03;;;2.08;;
69246;SDS011;56358;56.328;43.992;2023-09-18T01:41:12;4.82;;;2.50;;
69246;SDS011;56358;56.328;43.992;2023-09-18T01:43:13;6.35;;;2.60;;
69246;SDS011;56358;56.328;43.992;2023-09-18T01:45:14;5.72;;;2.63;;
69246;SDS011;56358;56.328;43.992;2023-09-18T01:47:18;8.48;;;2.67;;
69246;SDS011;56358;56.328;43.992;2023-09-18T01:49:33;7.05;;;2.35;;
69246;SDS011;56358;56.328;43.992;2023-09-18T01:51:35;4.90;;;2.50;;
69246;SDS011;56358;56.328;43.992;2023-09-18T01:53:36;5.80;;;2.50;;
69246;SDS011;56358;56.328;43.992;2023-09-18T01:55:37;3.75;;;2.30;;
69246;SDS011;56358;56.328;43.992;2023-09-18T01:57:37;4.57;;;2.67;;
69246;SDS011;56358;56.328;43.992;2023-09-18T01:59:38;5.78;;;2.40;;
69246;SDS011;56358;56.328;43.992;2023-09-18T02:01:39;5.75;;;2.58;;
69246;SDS011;56358;56.328;43.992;2023-09-18T02:03:39;5.00;;;2.42;;
69246;SDS011;56358;56.328;43.992;2023-09-18T02:05:42;4.63;;;2.30;;
69246;SDS011;56358;56.328;43.992;2023-09-18T02:07:42;5.22;;;2.55;;
69246;SDS011;56358;56.328;43.992;2023-09-18T02:09:43;6.13;;;2.30;;
69246;SDS011;56358;56.328;43.992;2023-09-18T02:11:46;5.82;;;2.40;;
69246;SDS011;56358;56.328;43.992;2023-09-18T02:13:50;6.57;;;2.92;;
69246;SDS011;56358;56.328;43.992;2023-09-18T02:15:52;5.88;;;2.70;;
69246;SDS011;56358;56.328;43.992;2023-09-18T02:17:54;5.40;;;2.20;;
69246;SDS011;56358;56.328;43.992;2023-09-18T02:19:54;4.65;;;2.63;;
69246;SDS011;56358;56.328;43.992;2023-09-18T02:21:56;4.50;;;2.30;;
69246;SDS011;56358;56.328;43.992;2023-09-18T02:23:58;4.50;;;2.33;;
69246;SDS011;56358;56.328;43.992;2023-09-18T02:25:58;9.82;;;2.60;;
69246;SDS011;56358;56.328;43.992;2023-09-18T02:27:59;9.85;;;2.70;;
69246;SDS011;56358;56.328;43.992;2023-09-18T02:30:00;4.88;;;2.55;;
69246;SDS011;56358;56.328;43.992;2023-09-18T02:32:01;4.65;;;2.50;;
69246;SDS011;56358;56.328;43.992;2023-09-18T02:34:01;4.90;;;2.67;;
69246;SDS011;56358;56.328;43.992;2023-09-18T02:36:02;7.75;;;2.83;;
69246;SDS011;56358;56.328;43.992;2023-09-18T02:38:03;5.07;;;2.60;;
69246;SDS011;56358;56.328;43.992;2023-09-18T02:40:04;7.82;;;2.70;;
69246;SDS011;56358;56.328;43.992;2023-09-18T02:42:05;5.40;;;2.95;;
69246;SDS011;56358;56.328;43.992;2023-09-18T02:44:06;5.80;;;3.00;;
69246;SDS011;56358;56.328;43.992;2023-09-18T02:46:07;7.38;;;3.10;;
69246;SDS011;56358;56.328;43.992;2023-09-18T02:48:08;6.82;;;2.75;;
69246;SDS011;56358;56.328;43.992;2023-09-18T02:50:09;5.88;;;3.13;;
69246;SDS011;56358;56.328;43.992;2023-09-18T02:52:11;9.35;;;3.30;;
69246;SDS011;56358;56.328;43.992;2023-09-18T02:54:12;9.23;;;3.30;;
69246;SDS011;56358;56.328;43.992;2023-09-18T02:56:12;6.32;;;2.85;;
69246;SDS011;56358;56.328;43.992;2023-09-18T02:58:14;6.13;;;3.33;;
69246;SDS011;56358;56.328;43.992;2023-09-18T03:00:16;8.95;;;3.40;;
69246;SDS011;56358;56.328;43.992;2023-09-18T03:02:17;7.25;;;3.33;;
69246;SDS011;56358;56.328;43.992;2023-09-18T03:04:18;7.88;;;3.20;;
69246;SDS011;56358;56.328;43.992;2023-09-18T03:06:18;6.75;;;3.00;;
69246;SDS011;56358;56.328;43.992;2023-09-18T03:08:19;7.72;;;3.42;;
69246;SDS011;56358;56.328;43.992;2023-09-18T03:10:20;8.93;;;3.53;;
69246;SDS011;56358;56.328;43.992;2023-09-18T03:12:20;9.32;;;4.35;;
69246;SDS011;56358;56.328;43.992;2023-09-18T03:14:22;10.30;;;5.47;;
69246;SDS011;56358;56.328;43.992;2023-09-18T03:16:23;9.85;;;4.07;;
69246;SDS011;56358;56.328;43.992;2023-09-18T03:18:23;8.73;;;4.32;;
69246;SDS011;56358;56.328;43.992;2023-09-18T03:20:25;7.03;;;3.95;;
69246;SDS011;56358;56.328;43.992;2023-09-18T03:22:26;9.05;;;4.30;;
69246;SDS011;56358;56.328;43.992;2023-09-18T03:24:27;7.28;;;4.05;;
69246;SDS011;56358;56.328;43.992;2023-09-18T03:26:28;8.32;;;4.18;;
69246;SDS011;56358;56.328;43.992;2023-09-18T03:28:28;9.20;;;4.43;;
69246;SDS011;56358;56.328;43.992;2023-09-18T03:30:29;6.93;;;3.90;;
69246;SDS011;56358;56.328;43.992;2023-09-18T03:32:30;9.38;;;4.28;;
69246;SDS011;56358;56.328;43.992;2023-09-18T03:34:31;10.27;;;4.53;;
69246;SDS011;56358;56.328;43.992;2023-09-18T03:36:32;9.35;;;4.07;;
69246;SDS011;56358;56.328;43.992;2023-09-18T03:38:33;7.13;;;4.00;;
69246;SDS011;56358;56.328;43.992;2023-09-18T03:40:35;9.25;;;4.25;;
69246;SDS011;56358;56.328;43.992;2023-09-18T03:42:36;12.07;;;4.40;;
69246;SDS011;56358;56.328;43.992;2023-09-18T03:44:37;11.05;;;4.40;;
69246;SDS011;56358;56.328;43.992;2023-09-18T03:46:37;10.02;;;4.10;;
69246;SDS011;56358;56.328;43.992;2023-09-18T03:48:38;11.52;;;5.35;;
69246;SDS011;56358;56.328;43.992;2023-09-18T03:50:39;8.57;;;4.68;;
69246;SDS011;56358;56.328;43.992;2023-09-18T03:52:39;11.10;;;4.90;;
69246;SDS011;56358;56.328;43.992;2023-09-18T03:54:40;9.98;;;4.57;;
69246;SDS011;56358;56.328;43.992;2023-09-18T03:56:41;9.18;;;4.35;;
69246;SDS011;56358;56.328;43.992;2023-09-18T03:58:41;10.20;;;4.72;;
69246;SDS011;56358;56.328;43.992;2023-09-18T04:00:42;9.95;;;4.38;;
69246;SDS011;56358;56.328;43.992;2023-09-18T04:02:43;12.02;;;4.90;;
69246;SDS011;56358;56.328;43.992;2023-09-18T04:04:44;12.10;;;5.63;;
69246;SDS011;56358;56.328;43.992;2023-09-18T04:06:44;9.07;;;4.30;;
69246;SDS011;56358;56.328;43.992;2023-09-18T04:08:46;10.95;;;4.30;;
69246;SDS011;56358;56.328;43.992;2023-09-18T04:10:47;11.10;;;4.50;;
69246;SDS011;56358;56.328;43.992;2023-09-18T04:12:51;12.75;;;4.30;;
69246;SDS011;56358;56.328;43.992;2023-09-18T04:14:52;10.30;;;4.53;;
69246;SDS011;56358;56.328;43.992;2023-09-18T04:16:53;11.07;;;5.20;;
69246;SDS011;56358;56.328;43.992;2023-09-18T04:18:54;8.85;;;5.15;;
69246;SDS011;56358;56.328;43.992;2023-09-18T04:20:54;10.20;;;5.05;;
69246;SDS011;56358;56.328;43.992;2023-09-18T04:25:19;10.45;;;5.13;;
69246;SDS011;56358;56.328;43.992;2023-09-18T04:27:20;10.73;;;4.95;;
69246;SDS011;56358;56.328;43.992;2023-09-18T04:29:20;15.30;;;5.57;;
69246;SDS011;56358;56.328;43.992;2023-09-18T04:31:21;9.52;;;5.13;;
69246;SDS011;56358;56.328;43.992;2023-09-18T04:33:22;9.55;;;5.65;;
69246;SDS011;56358;56.328;43.992;2023-09-18T04:35:23;10.82;;;5.20;;
69246;SDS011;56358;56.328;43.992;2023-09-18T04:37:25;10.73;;;4.77;;
69246;SDS011;56358;56.328;43.992;2023-09-18T04:39:26;12.48;;;5.95;;
69246;SDS011;56358;56.328;43.992;2023-09-18T04:41:26;12.63;;;5.50;;
69246;SDS011;56358;56.328;43.992;2023-09-18T04:43:27;11.05;;;5.65;;
69246;SDS011;56358;56.328;43.992;2023-09-18T04:45:30;10.73;;;5.25;;
69246;SDS011;56358;56.328;43.992;2023-09-18T04:47:32;13.23;;;5.78;;
69246;SDS011;56358;56.328;43.992;2023-09-18T04:49:32;13.57;;;6.07;;
69246;SDS011;56358;56.328;43.992;2023-09-18T04:51:33;12.32;;;5.65;;
69246;SDS011;56358;56.328;43.992;2023-09-18T04:53:34;13.77;;;6.40;;
69246;SDS011;56358;56.328;43.992;2023-09-18T04:55:34;11.18;;;6.40;;
69246;SDS011;56358;56.328;43.992;2023-09-18T04:57:35;11.38;;;5.88;;
69246;SDS011;56358;56.328;43.992;2023-09-18T04:59:36;11.50;;;6.10;;
69246;SDS011;56358;56.328;43.992;2023-09-18T05:01:36;13.73;;;6.47;;
69246;SDS011;56358;56.328;43.992;2023-09-18T05:03:37;12.07;;;6.25;;
69246;SDS011;56358;56.328;43.992;2023-09-18T05:05:38;11.63;;;5.18;;
69246;SDS011;56358;56.328;43.992;2023-09-18T05:07:39;11.05;;;5.15;;
69246;SDS011;56358;56.328;43.992;2023-09-18T05:09:39;11.15;;;5.25;;
69246;SDS011;56358;56.328;43.992;2023-09-18T05:11:40;14.80;;;6.15;;
69246;SDS011;56358;56.328;43.992;2023-09-18T05:13:42;11.82;;;5.63;;
69246;SDS011;56358;56.328;43.992;2023-09-18T05:15:42;16.00;;;6.28;;
69246;SDS011;56358;56.328;43.992;2023-09-18T05:17:44;11.68;;;5.82;;
69246;SDS011;56358;56.328;43.992;2023-09-18T05:19:54;10.88;;;6.10;;
69246;SDS011;56358;56.328;43.992;2023-09-18T05:21:55;12.02;;;5.93;;
69246;SDS011;56358;56.328;43.992;2023-09-18T05:23:55;14.90;;;6.13;;
69246;SDS011;56358;56.328;43.992;2023-09-18T05:25:56;17.05;;;7.15;;
69246;SDS011;56358;56.328;43.992;2023-09-18T05:27:57;15.02;;;6.60;;
69246;SDS011;56358;56.328;43.992;2023-09-18T05:29:59;13.55;;;6.65;;
69246;SDS011;56358;56.328;43.992;2023-09-18T05:32:00;12.43;;;6.22;;
69246;SDS011;56358;56.328;43.992;2023-09-18T05:34:01;11.30;;;6.45;;
69246;SDS011;56358;56.328;43.992;2023-09-18T05:36:01;14.05;;;6.22;;
69246;SDS011;56358;56.328;43.992;2023-09-18T05:38:03;13.95;;;6.18;;
69246;SDS011;56358;56.328;43.992;2023-09-18T05:40:08;15.63;;;6.68;;
69246;SDS011;56358;56.328;43.992;2023-09-18T05:42:09;14.63;;;6.22;;
69246;SDS011;56358;56.328;43.992;2023-09-18T05:44:10;15.13;;;6.25;;
69246;SDS011;56358;56.328;43.992;2023-09-18T05:46:11;14.50;;;6.00;;
69246;SDS011;56358;56.328;43.992;2023-09-18T05:48:11;12.35;;;6.15;;
69246;SDS011;56358;56.328;43.992;2023-09-18T05:50:13;12.98;;;6.28;;
69246;SDS011;56358;56.328;43.992;2023-09-18T05:52:15;15.38;;;6.85;;
69246;SDS011;56358;56.328;43.992;2023-09-18T05:54:16;13.45;;;7.13;;
69246;SDS011;56358;56.328;43.992;2023-09-18T05:56:17;14.48;;;6.70;;
69246;SDS011;56358;56.328;43.992;2023-09-18T05:58:18;15.07;;;6.53;;
69246;SDS011;56358;56.328;43.992;2023-09-18T06:00:22;24.63;;;6.72;;
69246;SDS011;56358;56.328;43.992;2023-09-18T06:02:24;14.25;;;6.07;;
69246;SDS011;56358;56.328;43.992;2023-09-18T06:04:27;11.77;;;6.80;;
69246;SDS011;56358;56.328;43.992;2023-09-18T06:06:27;14.80;;;6.03;;
69246;SDS011;56358;56.328;43.992;2023-09-18T06:08:28;24.50;;;11.82;;
69246;SDS011;56358;56.328;43.992;2023-09-18T06:10:30;11.90;;;6.22;;
69246;SDS011;56358;56.328;43.992;2023-09-18T06:12:31;12.27;;;6.32;;
69246;SDS011;56358;56.328;43.992;2023-09-18T06:14:32;13.95;;;6.75;;
69246;SDS011;56358;56.328;43.992;2023-09-18T06:18:35;10.82;;;5.78;;
69246;SDS011;56358;56.328;43.992;2023-09-18T06:20:38;14.70;;;6.05;;
69246;SDS011;56358;56.328;43.992;2023-09-18T06:22:39;13.43;;;5.63;;
69246;SDS011;56358;56.328;43.992;2023-09-18T06:24:41;16.63;;;6.53;;
69246;SDS011;56358;56.328;43.992;2023-09-18T06:26:43;11.45;;;5.85;;
69246;SDS011;56358;56.328;43.992;2023-09-18T06:28:43;15.45;;;6.75;;
69246;SDS011;56358;56.328;43.992;2023-09-18T06:30:44;13.00;;;5.50;;
69246;SDS011;56358;56.328;43.992;2023-09-18T06:32:45;11.63;;;6.00;;
69246;SDS011;56358;56.328;43.992;2023-09-18T06:34:46;14.23;;;5.57;;
69246;SDS011;56358;56.328;43.992;2023-09-18T06:36:47;14.57;;;6.00;;
69246;SDS011;56358;56.328;43.992;2023-09-18T06:38:49;10.82;;;5.50;;
69246;SDS011;56358;56.328;43.992;2023-09-18T06:40:49;11.90;;;5.75;;
69246;SDS011;56358;56.328;43.992;2023-09-18T06:42:51;15.68;;;5.90;;
69246;SDS011;56358;56.328;43.992;2023-09-18T06:45:00;16.13;;;5.93;;
69246;SDS011;56358;56.328;43.992;2023-09-18T06:47:01;10.77;;;5.90;;
69246;SDS011;56358;56.328;43.992;2023-09-18T06:49:02;12.13;;;5.50;;
69246;SDS011;56358;56.328;43.992;2023-09-18T06:51:03;12.95;;;5.78;;
69246;SDS011;56358;56.328;43.992;2023-09-18T06:53:06;17.00;;;6.28;;
69246;SDS011;56358;56.328;43.992;2023-09-18T06:55:07;12.45;;;6.22;;
69246;SDS011;56358;56.328;43.992;2023-09-18T06:57:08;15.80;;;8.00;;
69246;SDS011;56358;56.328;43.992;2023-09-18T06:59:08;13.40;;;6.20;;
69246;SDS011;56358;56.328;43.992;2023-09-18T07:01:09;14.30;;;7.25;;
69246;SDS011;56358;56.328;43.992;2023-09-18T07:03:10;11.20;;;5.28;;
69246;SDS011;56358;56.328;43.992;2023-09-18T07:05:11;10.82;;;5.22;;
69246;SDS011;56358;56.328;43.992;2023-09-18T07:07:12;10.30;;;5.78;;
69246;SDS011;56358;56.328;43.992;2023-09-18T07:09:13;11.07;;;5.40;;
69246;SDS011;56358;56.328;43.992;2023-09-18T07:11:15;11.00;;;5.35;;
69246;SDS011;56358;56.328;43.992;2023-09-18T07:13:17;12.68;;;5.55;;
69246;SDS011;56358;56.328;43.992;2023-09-18T07:15:18;11.20;;;5.25;;
69246;SDS011;56358;56.328;43.992;2023-09-18T07:17:18;13.40;;;5.28;;
69246;SDS011;56358;56.328;43.992;2023-09-18T07:19:19;11.90;;;5.30;;
69246;SDS011;56358;56.328;43.992;2023-09-18T07:21:19;13.48;;;5.38;;
69246;SDS011;56358;56.328;43.992;2023-09-18T07:23:20;9.38;;;4.72;;
69246;SDS011;56358;56.328;43.992;2023-09-18T07:25:21;13.65;;;6.05;;
69246;SDS011;56358;56.328;43.992;2023-09-18T07:27:21;9.43;;;4.40;;
69246;SDS011;56358;56.328;43.992;2023-09-18T07:29:22;9.90;;;5.03;;
69246;SDS011;56358;56.328;43.992;2023-09-18T07:31:25;15.93;;;5.53;;
69246;SDS011;56358;56.328;43.992;2023-09-18T07:33:25;13.30;;;4.95;;
69246;SDS011;56358;56.328;43.992;2023-09-18T07:35:26;12.77;;;5.10;;
69246;SDS011;56358;56.328;43.992;2023-09-18T07:37:27;13.70;;;5.18;;
69246;SDS011;56358;56.328;43.992;2023-09-18T07:39:28;15.43;;;5.93;;
69246;SDS011;56358;56.328;43.992;2023-09-18T07:41:29;13.68;;;6.40;;
69246;SDS011;56358;56.328;43.992;2023-09-18T07:43:29;14.20;;;5.05;;
69246;SDS011;56358;56.328;43.992;2023-09-18T07:45:30;9.90;;;5.20;;
69246;SDS011;56358;56.328;43.992;2023-09-18T07:47:32;13.82;;;4.93;;
69246;SDS011;56358;56.328;43.992;2023-09-18T07:49:33;13.93;;;5.57;;
69246;SDS011;56358;56.328;43.992;2023-09-18T07:51:34;10.20;;;5.00;;
69246;SDS011;56358;56.328;43.992;2023-09-18T07:53:34;11.32;;;4.65;;
69246;SDS011;56358;56.328;43.992;2023-09-18T07:55:35;15.05;;;5.05;;
69246;SDS011;56358;56.328;43.992;2023-09-18T07:57:36;20.20;;;5.05;;
69246;SDS011;56358;56.328;43.992;2023-09-18T07:59:37;12.68;;;5.20;;
69246;SDS011;56358;56.328;43.992;2023-09-18T08:01:42;12.48;;;4.70;;
69246;SDS011;56358;56.328;43.992;2023-09-18T08:03:43;12.85;;;5.28;;
69246;SDS011;56358;56.328;43.992;2023-09-18T08:05:44;18.10;;;4.95;;
69246;SDS011;56358;56.328;43.992;2023-09-18T08:07:45;12.30;;;4.60;;
69246;SDS011;56358;56.328;43.992;2023-09-18T08:09:48;11.00;;;5.10;;
69246;SDS011;56358;56.328;43.992;2023-09-18T08:11:49;11.27;;;4.70;;
69246;SDS011;56358;56.328;43.992;2023-09-18T08:13:50;15.70;;;4.93;;
69246;SDS011;56358;56.328;43.992;2023-09-18T08:15:50;11.15;;;4.85;;
69246;SDS011;56358;56.328;43.992;2023-09-18T08:17:51;13.55;;;4.35;;
69246;SDS011;56358;56.328;43.992;2023-09-18T08:19:53;13.10;;;4.63;;
69246;SDS011;56358;56.328;43.992;2023-09-18T08:21:54;12.10;;;4.68;;
69246;SDS011;56358;56.328;43.992;2023-09-18T08:23:59;11.60;;;4.97;;
69246;SDS011;56358;56.328;43.992;2023-09-18T08:26:00;10.55;;;4.72;;
69246;SDS011;56358;56.328;43.992;2023-09-18T08:28:01;11.95;;;5.05;;
69246;SDS011;56358;56.328;43.992;2023-09-18T08:30:03;10.70;;;5.07;;
69246;SDS011;56358;56.328;43.992;2023-09-18T08:32:05;11.80;;;4.75;;
69246;SDS011;56358;56.328;43.992;2023-09-18T08:34:05;9.82;;;4.55;;
69246;SDS011;56358;56.328;43.992;2023-09-18T08:36:06;11.80;;;5.03;;
69246;SDS011;56358;56.328;43.992;2023-09-18T08:38:06;17.90;;;6.18;;
69246;SDS011;56358;56.328;43.992;2023-09-18T08:40:09;11.38;;;5.88;;
69246;SDS011;56358;56.328;43.992;2023-09-18T08:42:10;14.75;;;6.03;;
69246;SDS011;56358;56.328;43.992;2023-09-18T08:44:12;9.60;;;5.15;;
69246;SDS011;56358;56.328;43.992;2023-09-18T08:46:15;13.38;;;5.43;;
69246;SDS011;56358;56.328;43.992;2023-09-18T08:48:16;8.15;;;4.90;;
69246;SDS011;56358;56.328;43.992;2023-09-18T08:50:17;11.05;;;5.13;;
69246;SDS011;56358;56.328;43.992;2023-09-18T08:52:19;9.10;;;4.50;;
69246;SDS011;56358;56.328;43.992;2023-09-18T08:54:21;12.43;;;5.53;;
69246;SDS011;56358;56.328;43.992;2023-09-18T08:56:24;9.48;;;4.13;;
69246;SDS011;56358;56.328;43.992;2023-09-18T08:58:28;12.48;;;4.80;;
69246;SDS011;56358;56.328;43.992;2023-09-18T09:00:32;9.68;;;4.40;;
69246;SDS011;56358;56.328;43.992;2023-09-18T09:02:33;12.50;;;5.55;;
69246;SDS011;56358;56.328;43.992;2023-09-18T09:04:34;12.48;;;5.15;;
69246;SDS011;56358;56.328;43.992;2023-09-18T09:06:35;13.98;;;5.30;;
69246;SDS011;56358;56.328;43.992;2023-09-18T09:08:36;12.00;;;4.97;;
69246;SDS011;56358;56.328;43.992;2023-09-18T09:10:37;14.13;;;5.03;;
69246;SDS011;56358;56.328;43.992;2023-09-18T09:12:54;12.45;;;5.20;;
69246;SDS011;56358;56.328;43.992;2023-09-18T09:15:02;11.38;;;5.45;;
69246;SDS011;56358;56.328;43.992;2023-09-18T09:17:05;13.73;;;5.50;;
69246;SDS011;56358;56.328;43.992;2023-09-18T09:19:06;10.25;;;5.53;;
69246;SDS011;56358;56.328;43.992;2023-09-18T09:21:07;9.73;;;4.72;;
69246;SDS011;56358;56.328;43.992;2023-09-18T09:23:09;10.40;;;4.30;;
69246;SDS011;56358;56.328;43.992;2023-09-18T09:25:32;10.07;;;4.78;;
69246;SDS011;56358;56.328;43.992;2023-09-18T09:27:42;9.40;;;4.68;;
69246;SDS011;56358;56.328;43.992;2023-09-18T09:29:43;9.55;;;4.10;;
69246;SDS011;56358;56.328;43.992;2023-09-18T09:32:16;10.63;;;4.10;;
69246;SDS011;56358;56.328;43.992;2023-09-18T09:34:25;12.93;;;4.65;;
69246;SDS011;56358;56.328;43.992;2023-09-18T09:36:27;7.45;;;3.83;;
69246;SDS011;56358;56.328;43.992;2023-09-18T09:38:28;8.85;;;4.70;;
69246;SDS011;56358;56.328;43.992;2023-09-18T09:40:34;10.27;;;4.78;;
69246;SDS011;56358;56.328;43.992;2023-09-18T09:42:39;9.40;;;4.70;;
69246;SDS011;56358;56.328;43.992;2023-09-18T09:44:41;7.22;;;4.10;;
69246;SDS011;56358;56.328;43.992;2023-09-18T09:46:45;7.22;;;3.95;;
69246;SDS011;56358;56.328;43.992;2023-09-18T09:49:05;10.70;;;4.25;;
69246;SDS011;56358;56.328;43.992;2023-09-18T09:51:07;7.60;;;3.42;;
69246;SDS011;56358;56.328;43.992;2023-09-18T09:53:08;7.18;;;4.20;;
69246;SDS011;56358;56.328;43.992;2023-09-18T09:57:20;7.20;;;3.78;;
69246;SDS011;56358;56.328;43.992;2023-09-18T09:59:21;8.57;;;3.97;;
69246;SDS011;56358;56.328;43.992;2023-09-18T10:01:22;6.00;;;3.75;;
69246;SDS011;56358;56.328;43.992;2023-09-18T10:03:24;7.32;;;4.03;;
69246;SDS011;56358;56.328;43.992;2023-09-18T10:05:26;7.97;;;4.05;;
69246;SDS011;56358;56.328;43.992;2023-09-18T10:07:35;10.10;;;3.72;;
69246;SDS011;56358;56.328;43.992;2023-09-18T10:09:39;8.55;;;4.50;;
69246;SDS011;56358;56.328;43.992;2023-09-18T10:11:45;6.82;;;3.67;;
69246;SDS011;56358;56.328;43.992;2023-09-18T10:13:55;8.60;;;4.30;;
69246;SDS011;56358;56.328;43.992;2023-09-18T10:16:00;7.65;;;3.92;;
69246;SDS011;56358;56.328;43.992;2023-09-18T10:18:07;8.32;;;4.07;;
69246;SDS011;56358;56.328;43.992;2023-09-18T10:20:17;6.70;;;3.92;;
69246;SDS011;56358;56.328;43.992;2023-09-18T10:22:31;7.88;;;4.30;;
69246;SDS011;56358;56.328;43.992;2023-09-18T10:24:39;8.98;;;3.70;;
69246;SDS011;56358;56.328;43.992;2023-09-18T10:26:51;7.78;;;4.28;;
69246;SDS011;56358;56.328;43.992;2023-09-18T10:29:06;9.35;;;3.83;;
69246;SDS011;56358;56.328;43.992;2023-09-18T10:31:11;7.47;;;3.65;;
69246;SDS011;56358;56.328;43.992;2023-09-18T10:33:13;7.10;;;3.50;;
69246;SDS011;56358;56.328;43.992;2023-09-18T10:35:14;6.97;;;3.72;;
69246;SDS011;56358;56.328;43.992;2023-09-18T10:37:15;7.68;;;3.97;;
69246;SDS011;56358;56.328;43.992;2023-09-18T10:39:17;7.63;;;3.97;;
69246;SDS011;56358;56.328;43.992;2023-09-18T10:41:20;7.40;;;4.30;;
69246;SDS011;56358;56.328;43.992;2023-09-18T10:43:21;9.98;;;4.13;;
69246;SDS011;56358;56.328;43.992;2023-09-18T10:45:22;9.85;;;4.20;;
69246;SDS011;56358;56.328;43.992;2023-09-18T10:47:23;7.07;;;4.25;;
69246;SDS011;56358;56.328;43.992;2023-09-18T10:49:24;10.15;;;4.18;;
69246;SDS011;56358;56.328;43.992;2023-09-18T10:51:25;7.13;;;4.10;;
69246;SDS011;56358;56.328;43.992;2023-09-18T10:53:27;7.60;;;3.88;;
69246;SDS011;56358;56.328;43.992;2023-09-18T10:55:29;10.63;;;4.15;;
69246;SDS011;56358;56.328;43.992;2023-09-18T10:57:36;7.78;;;3.83;;
69246;SDS011;56358;56.328;43.992;2023-09-18T10:59:44;8.82;;;4.20;;
69246;SDS011;56358;56.328;43.992;2023-09-18T11:01:46;11.02;;;4.18;;
69246;SDS011;56358;56.328;43.992;2023-09-18T11:03:49;8.43;;;4.10;;
69246;SDS011;56358;56.328;43.992;2023-09-18T11:06:01;6.68;;;3.65;;
69246;SDS011;56358;56.328;43.992;2023-09-18T11:10:28;7.97;;;4.00;;
69246;SDS011;56358;56.328;43.992;2023-09-18T11:12:42;6.82;;;3.60;;
69246;SDS011;56358;56.328;43.992;2023-09-18T11:14:45;7.78;;;3.95;;
69246;SDS011;56358;56.328;43.992;2023-09-18T11:16:56;8.07;;;5.13;;
69246;SDS011;56358;56.328;43.992;2023-09-18T11:21:09;8.65;;;4.22;;
69246;SDS011;56358;56.328;43.992;2023-09-18T11:27:54;7.22;;;3.97;;
69246;SDS011;56358;56.328;43.992;2023-09-18T11:29:56;8.10;;;3.83;;
69246;SDS011;56358;56.328;43.992;2023-09-18T11:31:57;6.38;;;3.80;;
69246;SDS011;56358;56.328;43.992;2023-09-18T11:33:58;6.68;;;3.60;;
69246;SDS011;56358;56.328;43.992;2023-09-18T11:36:31;7.88;;;4.35;;
69246;SDS011;56358;56.328;43.992;2023-09-18T11:38:31;8.77;;;3.70;;
69246;SDS011;56358;56.328;43.992;2023-09-18T11:42:38;6.43;;;3.83;;
69246;SDS011;56358;56.328;43.992;2023-09-18T11:44:39;7.60;;;3.90;;
69246;SDS011;56358;56.328;43.992;2023-09-18T11:46:50;8.90;;;4.32;;
69246;SDS011;56358;56.328;43.992;2023-09-18T11:48:53;9.00;;;3.88;;
69246;SDS011;56358;56.328;43.992;2023-09-18T11:50:54;6.72;;;4.05;;
69246;SDS011;56358;56.328;43.992;2023-09-18T11:54:59;8.38;;;4.03;;
69246;SDS011;56358;56.328;43.992;2023-09-18T11:57:04;7.63;;;3.75;;
69246;SDS011;56358;56.328;43.992;2023-09-18T11:59:07;8.13;;;4.05;;
69246;SDS011;56358;56.328;43.992;2023-09-18T12:01:10;8.35;;;3.92;;
69246;SDS011;56358;56.328;43.992;2023-09-18T12:03:14;8.98;;;4.00;;
69246;SDS011;56358;56.328;43.992;2023-09-18T12:05:18;8.70;;;4.80;;
69246;SDS011;56358;56.328;43.992;2023-09-18T12:07:19;14.18;;;6.65;;
69246;SDS011;56358;56.328;43.992;2023-09-18T12:09:20;10.55;;;5.72;;
69246;SDS011;56358;56.328;43.992;2023-09-18T12:11:20;8.55;;;5.13;;
69246;SDS011;56358;56.328;43.992;2023-09-18T12:13:21;17.25;;;8.20;;
69246;SDS011;56358;56.328;43.992;2023-09-18T12:15:24;11.82;;;6.03;;
69246;SDS011;56358;56.328;43.992;2023-09-18T12:17:25;10.38;;;5.90;;
69246;SDS011;56358;56.328;43.992;2023-09-18T12:19:27;18.73;;;6.88;;
69246;SDS011;56358;56.328;43.992;2023-09-18T12:21:28;8.75;;;4.60;;
69246;SDS011;56358;56.328;43.992;2023-09-18T12:23:28;6.40;;;3.22;;